createdAt,value
2022-10-19T00:00:12.251Z,12.28
2022-10-19T00:03:04.347Z,12.26
2022-10-19T00:05:36.349Z,12.28
2022-10-19T00:08:09.226Z,12.23
2022-10-19T00:10:43.722Z,12.21
2022-10-19T00:13:15.608Z,12.19
2022-10-19T00:15:47.680Z,12.17
2022-10-19T00:18:19.679Z,12.15
2022-10-19T00:20:51.721Z,12.13
2022-10-19T00:23:23.682Z,12.11
2022-10-19T00:25:59.643Z,12.09
2022-10-19T00:28:31.831Z,12.12
2022-10-19T00:31:07.485Z,12.10
2022-10-19T00:33:40.062Z,12.08
2022-10-19T00:36:18.892Z,12.07
2022-10-19T00:38:51.136Z,12.06
2022-10-19T00:41:24.038Z,12.04
2022-10-19T00:43:59.574Z,12.00
2022-10-19T00:46:33.671Z,11.96
2022-10-19T00:49:10.724Z,11.94
2022-10-19T00:51:47.832Z,11.96
2022-10-19T00:54:20.724Z,11.96
2022-10-19T00:56:56.290Z,11.95
2022-10-19T00:59:31.915Z,11.96
2022-10-19T01:02:06.478Z,11.96
2022-10-19T01:04:41.575Z,11.95
2022-10-19T01:07:13.955Z,11.93
2022-10-19T01:09:46.112Z,11.92
2022-10-19T01:12:31.532Z,11.91
2022-10-19T01:15:19.585Z,11.94
2022-10-19T01:18:01.106Z,11.94
2022-10-19T01:20:55.529Z,11.96
2022-10-19T01:23:57.247Z,11.98
2022-10-19T01:26:51.220Z,11.97
2022-10-19T01:29:40.570Z,11.96
2022-10-19T01:32:18.001Z,11.94
2022-10-19T01:34:56.099Z,11.93
2022-10-19T01:37:35.580Z,11.97
2022-10-19T01:40:11.949Z,11.98
2022-10-19T01:42:47.809Z,12.00
2022-10-19T01:45:28.338Z,12.01
2022-10-19T01:48:07.070Z,12.02
2022-10-19T01:50:45.227Z,12.00
2022-10-19T01:53:19.333Z,11.99
2022-10-19T01:55:54.233Z,11.99
2022-10-19T01:58:30.035Z,12.02
2022-10-19T02:01:06.494Z,12.03
2022-10-19T02:03:40.663Z,12.03
2022-10-19T02:06:15.113Z,12.04
2022-10-19T02:08:49.754Z,12.03
2022-10-19T02:11:23.282Z,12.02
2022-10-19T02:14:02.187Z,12.00
2022-10-19T02:16:40.051Z,11.97
2022-10-19T02:19:14.562Z,11.97
2022-10-19T02:21:46.827Z,12.00
2022-10-19T02:24:19.139Z,12.01
2022-10-19T02:26:51.431Z,12.01
2022-10-19T02:29:23.747Z,12.03
2022-10-19T02:31:55.894Z,12.06
2022-10-19T02:34:28.569Z,12.07
2022-10-19T02:37:00.810Z,12.06
2022-10-19T02:39:33.136Z,12.06
2022-10-19T02:42:11.175Z,12.05
2022-10-19T02:44:48.640Z,12.05
2022-10-19T02:47:23.702Z,12.08
2022-10-19T02:49:56.037Z,12.06
2022-10-19T02:52:28.083Z,12.03
2022-10-19T02:55:00.125Z,12.02
2022-10-19T02:57:32.793Z,12.01
2022-10-19T03:00:06.133Z,11.98
2022-10-19T03:02:38.228Z,11.96
2022-10-19T03:05:11.647Z,11.92
2022-10-19T03:07:43.575Z,11.89
2022-10-19T03:10:15.559Z,11.90
2022-10-19T03:12:47.548Z,11.88
2022-10-19T03:15:20.681Z,11.85
2022-10-19T03:17:55.648Z,11.83
2022-10-19T03:20:27.611Z,11.81
2022-10-19T03:22:59.630Z,11.78
2022-10-19T03:25:31.603Z,11.76
2022-10-19T03:28:03.797Z,11.72
2022-10-19T03:30:35.760Z,11.69
2022-10-19T03:33:07.750Z,11.72
2022-10-19T03:35:39.698Z,11.71
2022-10-19T03:38:11.675Z,11.71
2022-10-19T03:40:43.893Z,11.71
2022-10-19T03:43:15.794Z,11.72
2022-10-19T03:45:50.038Z,11.74
2022-10-19T03:48:22.103Z,11.75
2022-10-19T03:51:02.153Z,11.76
2022-10-19T03:53:34.423Z,11.75
2022-10-19T03:56:09.318Z,11.76
2022-10-19T03:58:40.409Z,11.80
2022-10-19T04:01:14.829Z,11.80
2022-10-19T04:03:46.935Z,11.82
2022-10-19T04:06:22.123Z,11.83
2022-10-19T04:08:54.494Z,11.83
2022-10-19T04:11:28.644Z,11.83
2022-10-19T04:14:01.937Z,11.81
2022-10-19T04:16:34.593Z,11.79
2022-10-19T04:19:06.579Z,11.78
2022-10-19T04:21:40.543Z,11.78
2022-10-19T04:24:14.503Z,11.82
2022-10-19T04:26:48.514Z,11.84
2022-10-19T04:29:24.969Z,11.85
2022-10-19T04:32:00.101Z,11.86
2022-10-19T04:34:35.167Z,11.87
2022-10-19T04:37:09.648Z,11.86
2022-10-19T04:39:43.479Z,11.83
2022-10-19T04:42:15.373Z,11.81
2022-10-19T04:44:47.280Z,11.80
2022-10-19T04:47:19.218Z,11.84
2022-10-19T04:49:51.217Z,11.85
2022-10-19T04:52:23.156Z,11.85
2022-10-19T04:54:55.163Z,11.85
2022-10-19T04:57:27.073Z,11.86
2022-10-19T04:59:59.067Z,11.84
2022-10-19T05:02:30.974Z,11.82
2022-10-19T05:05:03.014Z,11.80
2022-10-19T05:07:35.302Z,11.79
2022-10-19T05:10:09.684Z,11.83
2022-10-19T05:12:41.657Z,11.83
2022-10-19T05:15:14.094Z,11.82
2022-10-19T05:17:46.081Z,11.84
2022-10-19T05:20:18.070Z,11.85
2022-10-19T05:22:50.021Z,11.86
2022-10-19T05:25:21.983Z,11.84
2022-10-19T05:27:56.802Z,11.83
2022-10-19T05:30:27.212Z,11.81
2022-10-19T05:32:59.129Z,11.79
2022-10-19T05:35:31.162Z,11.77
2022-10-19T05:38:03.099Z,11.80
2022-10-19T05:40:35.190Z,11.81
2022-10-19T05:43:07.102Z,11.83
2022-10-19T05:45:39.053Z,11.83
2022-10-19T05:48:10.937Z,11.84
2022-10-19T05:50:53.178Z,11.86
2022-10-19T05:53:25.262Z,11.89
2022-10-19T05:55:57.266Z,11.90
2022-10-19T05:58:29.177Z,11.89
2022-10-19T06:01:02.909Z,11.88
2022-10-19T06:03:35.295Z,11.91
2022-10-19T06:06:08.994Z,11.96
2022-10-19T06:08:41.467Z,11.98
2022-10-19T06:11:15.697Z,11.98
2022-10-19T06:13:50.469Z,11.98
2022-10-19T06:16:21.215Z,11.98
2022-10-19T06:18:53.365Z,11.94
2022-10-19T06:21:27.875Z,11.93
2022-10-19T06:24:01.653Z,11.90
2022-10-19T06:26:35.082Z,11.90
2022-10-19T06:29:07.672Z,11.95
2022-10-19T06:31:39.714Z,11.96
2022-10-19T06:34:11.729Z,11.98
2022-10-19T06:36:43.743Z,11.99
2022-10-19T06:39:15.640Z,12.01
2022-10-19T06:41:47.582Z,12.02
2022-10-19T06:44:30.135Z,12.03
2022-10-19T06:47:02.200Z,12.04
2022-10-19T06:49:35.950Z,12.04
2022-10-19T06:52:08.386Z,12.06
2022-10-19T06:54:40.322Z,12.11
2022-10-19T06:57:12.394Z,12.13
2022-10-19T06:59:44.342Z,12.15
2022-10-19T07:02:16.713Z,12.19
2022-10-19T07:04:48.670Z,12.24
2022-10-19T07:07:20.711Z,12.30
2022-10-19T07:09:53.635Z,12.30
2022-10-19T07:12:25.662Z,12.31
2022-10-19T07:14:58.231Z,12.28
2022-10-19T07:17:30.272Z,12.28
2022-10-19T07:20:02.169Z,12.33
2022-10-19T07:22:34.263Z,12.34
2022-10-19T07:25:06.891Z,12.34
2022-10-19T07:27:40.670Z,12.35
2022-10-19T07:30:13.527Z,12.36
2022-10-19T07:32:47.115Z,12.37
2022-10-19T07:35:19.469Z,12.34
2022-10-19T07:37:51.426Z,12.29
2022-10-19T07:40:23.437Z,12.24
2022-10-19T07:42:55.518Z,12.19
2022-10-19T07:45:27.521Z,12.18
2022-10-19T07:47:59.883Z,12.16
2022-10-19T07:50:31.851Z,12.16
2022-10-19T07:53:05.411Z,12.17
2022-10-19T07:55:37.998Z,12.20
2022-10-19T07:58:09.935Z,12.22
2022-10-19T08:00:41.900Z,12.24
2022-10-19T08:06:07.847Z,12.23
2022-10-19T08:08:40.840Z,12.22
2022-10-19T08:11:14.717Z,12.22
2022-10-19T08:13:47.091Z,12.19
2022-10-19T08:16:27.449Z,12.16
2022-10-19T08:19:02.419Z,12.12
2022-10-19T08:21:34.905Z,12.10
2022-10-19T08:24:07.732Z,12.10
2022-10-19T08:26:40.700Z,12.12
2022-10-19T08:29:15.063Z,12.14
2022-10-19T08:31:48.501Z,12.16
2022-10-19T08:34:20.424Z,12.26
2022-10-19T08:36:52.338Z,12.32
2022-10-19T08:39:24.331Z,12.38
2022-10-19T08:42:03.478Z,12.46
2022-10-19T08:45:04.055Z,12.55
2022-10-19T08:47:55.098Z,12.58
2022-10-19T08:50:31.809Z,12.62
2022-10-19T08:53:06.279Z,12.65
2022-10-19T08:55:54.034Z,12.67
2022-10-19T08:58:37.487Z,12.74
2022-10-19T09:01:16.494Z,12.81
2022-10-19T09:03:56.326Z,12.88
2022-10-19T09:06:35.550Z,12.98
2022-10-19T09:09:11.538Z,13.06
2022-10-19T09:11:47.500Z,13.15
2022-10-19T09:14:24.467Z,13.32
2022-10-19T09:17:01.111Z,13.49
2022-10-19T09:19:33.549Z,13.63
2022-10-19T09:22:08.938Z,13.74
2022-10-19T09:24:48.694Z,13.91
2022-10-19T09:27:24.407Z,14.02
2022-10-19T09:29:59.496Z,14.03
2022-10-19T09:32:36.601Z,14.02
2022-10-19T09:35:19.500Z,13.99
2022-10-19T09:37:52.674Z,13.95
2022-10-19T09:40:27.726Z,13.92
2022-10-19T09:43:08.699Z,13.98
2022-10-19T09:45:47.349Z,14.08
2022-10-19T09:48:27.830Z,14.20
2022-10-19T09:51:02.299Z,14.25
2022-10-19T09:53:34.324Z,14.15
2022-10-19T09:56:18.494Z,14.06
2022-10-19T09:58:53.300Z,13.98
2022-10-19T10:01:40.226Z,13.96
2022-10-19T10:04:17.814Z,14.06
2022-10-19T10:06:49.437Z,14.10
2022-10-19T10:09:27.335Z,14.07
2022-10-19T10:12:01.062Z,14.03
2022-10-19T10:14:36.485Z,13.99
2022-10-19T10:17:15.696Z,13.91
2022-10-19T10:20:06.810Z,13.84
2022-10-19T10:22:39.349Z,13.74
2022-10-19T10:25:20.342Z,13.70
2022-10-19T10:28:01.592Z,13.73
2022-10-19T10:30:38.063Z,13.81
2022-10-19T10:33:33.186Z,13.96
2022-10-19T10:36:11.094Z,14.16
2022-10-19T10:38:47.415Z,14.33
2022-10-19T10:41:24.136Z,14.48
2022-10-19T10:44:00.985Z,14.62
2022-10-19T10:46:43.795Z,14.74
2022-10-19T10:49:25.050Z,14.73
2022-10-19T10:51:59.541Z,14.74
2022-10-19T10:54:32.962Z,14.76
2022-10-19T10:57:16.914Z,14.68
2022-10-19T10:59:56.073Z,14.51
2022-10-19T11:02:40.386Z,14.33
2022-10-19T11:05:20.752Z,14.08
2022-10-19T11:07:57.795Z,13.86
2022-10-19T11:10:34.343Z,13.65
2022-10-19T11:13:15.602Z,13.45
2022-10-19T11:15:54.845Z,13.38
2022-10-19T11:18:31.408Z,13.35
2022-10-19T11:21:12.207Z,13.34
2022-10-19T11:23:56.339Z,13.31
2022-10-19T11:26:43.106Z,13.26
2022-10-19T11:29:28.623Z,13.25
2022-10-19T11:32:00.917Z,13.24
2022-10-19T11:34:46.101Z,13.20
2022-10-19T11:37:21.453Z,13.19
2022-10-19T11:40:06.362Z,13.23
2022-10-19T11:42:52.343Z,13.37
2022-10-19T11:45:36.346Z,13.58
2022-10-19T11:48:35.149Z,13.73
2022-10-19T11:51:21.660Z,13.91
2022-10-19T11:54:11.176Z,14.11
2022-10-19T11:57:02.888Z,14.38
2022-10-19T11:59:44.261Z,14.49
2022-10-19T12:02:43.022Z,14.32
2022-10-19T12:05:18.674Z,14.05
2022-10-19T12:08:03.814Z,13.78
2022-10-19T12:10:39.389Z,13.56
2022-10-19T12:13:16.900Z,13.38
2022-10-19T12:15:53.807Z,13.27
2022-10-19T12:18:32.690Z,13.20
2022-10-19T12:21:09.575Z,13.17
2022-10-19T12:23:46.852Z,13.11
2022-10-19T12:26:22.360Z,13.06
2022-10-19T12:28:59.615Z,12.95
2022-10-19T12:31:32.781Z,12.87
2022-10-19T12:34:11.279Z,12.83
2022-10-19T12:36:49.073Z,12.78
2022-10-19T12:39:29.575Z,12.72
2022-10-19T12:42:10.797Z,12.69
2022-10-19T12:45:12.073Z,12.72
2022-10-19T12:48:25.985Z,12.80
2022-10-19T12:51:19.009Z,12.95
2022-10-19T12:53:51.850Z,13.08
2022-10-19T12:56:25.721Z,13.18
2022-10-19T12:59:01.590Z,13.26
2022-10-19T13:01:45.510Z,13.32
2022-10-19T13:04:20.573Z,13.41
2022-10-19T13:07:01.527Z,13.48
2022-10-19T13:09:36.892Z,13.57
2022-10-19T13:12:30.368Z,13.64
2022-10-19T13:15:03.857Z,13.64
2022-10-19T13:17:46.385Z,13.57
2022-10-19T13:20:54.604Z,13.49
2022-10-19T13:23:43.050Z,13.46
2022-10-19T13:26:34.373Z,13.42
2022-10-19T13:29:25.204Z,13.34
2022-10-19T13:32:17.202Z,13.28
2022-10-19T13:34:50.180Z,13.23
2022-10-19T13:37:22.607Z,13.17
2022-10-19T13:39:55.361Z,13.12
2022-10-19T13:42:29.363Z,13.08
2022-10-19T13:45:01.333Z,13.01
2022-10-19T13:47:40.656Z,12.95
2022-10-19T13:50:36.085Z,12.86
2022-10-19T13:53:33.300Z,12.82
2022-10-19T13:56:33.917Z,12.77
2022-10-19T13:59:33.502Z,12.71
2022-10-19T14:02:32.435Z,12.62
2022-10-19T14:05:21.541Z,12.54
2022-10-19T14:08:05.094Z,12.49
2022-10-19T14:11:00.039Z,12.42
2022-10-19T14:13:30.673Z,12.33
2022-10-19T14:16:03.208Z,12.25
2022-10-19T14:18:37.679Z,12.20
2022-10-19T14:21:11.442Z,12.15
2022-10-19T14:23:43.578Z,12.06
2022-10-19T14:26:20.669Z,11.93
2022-10-19T14:28:57.710Z,11.84
2022-10-19T14:31:35.741Z,11.78
2022-10-19T14:34:10.462Z,11.75
2022-10-19T14:36:44.725Z,11.72
2022-10-19T14:39:29.767Z,11.68
2022-10-19T14:42:06.919Z,11.60
2022-10-19T14:44:42.307Z,11.53
2022-10-19T14:47:21.921Z,11.43
2022-10-19T14:49:54.521Z,11.33
2022-10-19T14:52:34.075Z,11.23
2022-10-19T14:55:12.766Z,11.14
2022-10-19T14:57:49.499Z,11.10
2022-10-19T15:03:06.301Z,11.06
2022-10-19T15:05:42.673Z,11.02
2022-10-19T15:08:24.508Z,10.97
2022-10-19T15:10:57.009Z,10.91
2022-10-19T15:13:32.857Z,10.85
2022-10-19T15:16:05.115Z,10.79
2022-10-19T15:18:49.222Z,10.74
2022-10-19T15:21:23.319Z,10.70
2022-10-19T15:23:55.529Z,10.66
2022-10-19T15:26:32.461Z,10.63
2022-10-19T15:29:20.679Z,10.61
2022-10-19T15:31:56.554Z,10.56
2022-10-19T15:34:31.013Z,10.51
2022-10-19T15:37:04.000Z,10.48
2022-10-19T15:39:42.137Z,10.46
2022-10-19T15:42:40.556Z,10.42
2022-10-19T15:45:34.355Z,10.38
2022-10-19T15:48:27.529Z,10.34
2022-10-19T15:50:59.740Z,10.29
2022-10-19T15:53:31.678Z,10.26
2022-10-19T15:58:40.565Z,10.19
2022-10-19T16:01:16.968Z,10.16
2022-10-19T16:03:50.058Z,10.13
2022-10-19T16:06:24.462Z,10.09
2022-10-19T16:08:56.628Z,10.06
2022-10-19T16:11:30.187Z,10.04
2022-10-19T16:14:02.260Z,10.01
2022-10-19T16:16:35.214Z,9.99
2022-10-19T16:19:07.264Z,9.94
2022-10-19T16:21:39.294Z,9.93
2022-10-19T16:24:12.412Z,9.99
2022-10-19T16:26:44.329Z,10.00
2022-10-19T16:29:16.300Z,10.01
2022-10-19T16:31:48.214Z,9.99
2022-10-19T16:34:20.250Z,9.96
2022-10-19T16:36:52.216Z,9.95
2022-10-19T16:39:25.661Z,9.93
2022-10-19T16:41:57.587Z,9.91
2022-10-19T16:44:29.653Z,9.89
2022-10-19T16:47:02.160Z,9.87
2022-10-19T16:49:34.231Z,9.84
2022-10-19T16:52:06.573Z,9.81
2022-10-19T16:54:38.748Z,9.79
2022-10-19T16:57:10.715Z,9.75
2022-10-19T16:59:42.704Z,9.71
2022-10-19T17:02:15.065Z,9.65
2022-10-19T17:04:47.208Z,9.60
2022-10-19T17:07:19.639Z,9.56
2022-10-19T17:09:56.752Z,9.53
2022-10-19T17:12:28.808Z,9.49
2022-10-19T17:15:29.854Z,9.45
2022-10-19T17:17:52.600Z,9.39
2022-10-19T17:20:24.590Z,9.36
2022-10-19T17:22:56.498Z,9.39
2022-10-19T17:25:28.631Z,9.40
2022-10-19T17:28:00.618Z,9.39
2022-10-19T17:30:32.646Z,9.36
2022-10-19T17:33:04.539Z,9.35
2022-10-19T17:35:37.935Z,9.32
2022-10-19T17:38:10.233Z,9.30
2022-10-19T17:40:42.240Z,9.27
2022-10-19T17:43:14.406Z,9.24
2022-10-19T17:45:46.318Z,9.20
2022-10-19T17:48:19.128Z,9.15
2022-10-19T17:51:00.732Z,9.09
2022-10-19T17:53:34.055Z,9.02
2022-10-19T17:56:08.233Z,8.96
2022-10-19T17:58:40.470Z,8.91
2022-10-19T18:01:13.714Z,8.88
2022-10-19T18:03:45.979Z,8.84
2022-10-19T18:06:22.177Z,8.83
2022-10-19T18:08:56.033Z,8.86
2022-10-19T18:11:29.998Z,8.84
2022-10-19T18:14:03.160Z,8.82
2022-10-19T18:16:37.256Z,8.79
2022-10-19T18:19:09.775Z,8.76
2022-10-19T18:21:44.064Z,8.75
2022-10-19T18:24:20.125Z,8.73
2022-10-19T18:26:53.292Z,8.71
2022-10-19T18:29:27.156Z,8.70
2022-10-19T18:31:59.259Z,8.70
2022-10-19T18:34:31.425Z,8.70
2022-10-19T18:37:03.449Z,8.67
2022-10-19T18:39:36.235Z,8.63
2022-10-19T18:42:08.238Z,8.59
2022-10-19T18:44:40.321Z,8.56
2022-10-19T18:47:12.685Z,8.60
2022-10-19T18:49:44.632Z,8.61
2022-10-19T18:52:16.595Z,8.63
2022-10-19T18:54:48.522Z,8.62
2022-10-19T18:57:20.511Z,8.64
2022-10-19T18:59:52.474Z,8.64
2022-10-19T19:02:34.933Z,8.62
2022-10-19T19:05:14.542Z,8.62
2022-10-19T19:07:46.503Z,8.60
2022-10-19T19:10:18.970Z,8.59
2022-10-19T19:12:52.182Z,8.57
2022-10-19T19:15:24.075Z,8.55
2022-10-19T19:17:57.777Z,8.51
2022-10-19T19:20:29.762Z,8.50
2022-10-19T19:23:01.885Z,8.55
2022-10-19T19:25:33.826Z,8.56
2022-10-19T19:28:05.791Z,8.56
2022-10-19T19:30:42.998Z,8.54
2022-10-19T19:33:15.523Z,8.54
2022-10-19T19:35:48.637Z,8.53
2022-10-19T19:38:20.765Z,8.52
2022-10-19T19:40:52.710Z,8.51
2022-10-19T19:43:24.766Z,8.47
2022-10-19T19:46:04.615Z,8.44
2022-10-19T19:48:40.738Z,8.42
2022-10-19T19:51:14.478Z,8.38
2022-10-19T19:53:47.262Z,8.37
2022-10-19T19:56:20.721Z,8.41
2022-10-19T19:58:57.052Z,8.42
2022-10-19T20:01:29.379Z,8.44
2022-10-19T20:06:41.499Z,8.43
2022-10-19T20:09:13.500Z,8.41
2022-10-19T20:11:46.754Z,8.38
2022-10-19T20:14:18.887Z,8.33
2022-10-19T20:16:51.169Z,8.27
2022-10-19T20:19:23.180Z,8.20
2022-10-19T20:21:56.404Z,8.13
2022-10-19T20:24:28.481Z,8.07
2022-10-19T20:27:00.455Z,8.04
2022-10-19T20:29:32.560Z,8.06
2022-10-19T20:32:04.505Z,8.05
2022-10-19T20:34:37.468Z,8.04
2022-10-19T20:37:10.254Z,8.00
2022-10-19T20:39:42.176Z,7.99
2022-10-19T20:42:14.260Z,7.97
2022-10-19T20:44:46.622Z,7.96
2022-10-19T20:47:18.562Z,7.93
2022-10-19T20:49:50.671Z,7.90
2022-10-19T20:52:22.688Z,7.86
2022-10-19T20:54:54.655Z,7.83
2022-10-19T20:57:26.658Z,7.77
2022-10-19T20:59:58.624Z,7.74
2022-10-19T21:02:30.556Z,7.78
2022-10-19T21:05:02.552Z,7.81
2022-10-19T21:07:34.480Z,7.82
2022-10-19T21:10:07.191Z,7.80
2022-10-19T21:12:39.152Z,7.80
2022-10-19T21:15:12.582Z,7.81
2022-10-19T21:17:44.539Z,7.78
2022-10-19T21:20:16.740Z,7.75
2022-10-19T21:22:48.679Z,7.73
2022-10-19T21:25:20.734Z,7.71
2022-10-19T21:27:55.565Z,7.69
2022-10-19T21:30:28.034Z,7.68
2022-10-19T21:32:59.960Z,7.72
2022-10-19T21:35:31.963Z,7.73
2022-10-19T21:38:03.894Z,7.71
2022-10-19T21:40:37.796Z,7.68
2022-10-19T21:43:11.401Z,7.66
2022-10-19T21:45:43.397Z,7.66
2022-10-19T21:48:15.451Z,7.64
2022-10-19T21:50:47.459Z,7.62
2022-10-19T21:53:23.660Z,7.60
2022-10-19T21:55:56.352Z,7.59
2022-10-19T21:58:29.054Z,7.60
2022-10-19T22:01:08.709Z,7.65
2022-10-19T22:03:40.893Z,7.68
2022-10-19T22:06:14.121Z,7.69
2022-10-19T22:08:49.306Z,7.68
2022-10-19T22:11:21.737Z,7.68
2022-10-19T22:13:56.926Z,7.68
2022-10-19T22:16:30.474Z,7.68
2022-10-19T22:19:02.463Z,7.67
2022-10-19T22:21:35.713Z,7.65
2022-10-19T22:24:10.865Z,7.63
2022-10-19T22:26:44.944Z,7.64
2022-10-19T22:29:17.015Z,7.70
2022-10-19T22:31:49.065Z,7.72
2022-10-19T22:34:21.221Z,7.72
2022-10-19T22:36:53.503Z,7.70
2022-10-19T22:39:27.792Z,7.69
2022-10-19T22:42:52.950Z,7.68
2022-10-19T22:45:39.938Z,7.65
2022-10-19T22:48:12.014Z,7.63
2022-10-19T22:50:44.560Z,7.60
2022-10-19T22:53:16.485Z,7.60
2022-10-19T22:55:48.450Z,7.64
2022-10-19T22:58:20.765Z,7.65
2022-10-19T23:01:03.600Z,7.65
2022-10-19T23:03:36.314Z,7.62
2022-10-19T23:06:09.430Z,7.59
2022-10-19T23:08:41.912Z,7.55
2022-10-19T23:11:14.468Z,7.50
2022-10-19T23:13:46.403Z,7.43
2022-10-19T23:16:18.404Z,7.36
2022-10-19T23:18:50.474Z,7.31
2022-10-19T23:21:22.602Z,7.28
2022-10-19T23:23:54.750Z,7.28
2022-10-19T23:26:27.036Z,7.32
2022-10-19T23:28:58.911Z,7.30
2022-10-19T23:31:31.238Z,7.27
2022-10-19T23:34:03.165Z,7.28
2022-10-19T23:36:35.107Z,7.27
2022-10-19T23:39:07.780Z,7.27
2022-10-19T23:41:39.706Z,7.26
2022-10-19T23:44:12.084Z,7.24
2022-10-19T23:46:44.115Z,7.21
2022-10-19T23:49:16.445Z,7.15
2022-10-19T23:51:48.461Z,7.11
2022-10-19T23:54:20.370Z,7.07
2022-10-19T23:56:52.370Z,7.03
2022-10-19T23:59:24.642Z,7.05
